createdAt,value
2022-11-24T00:01:04.115Z,7.15
2022-11-24T00:03:33.136Z,7.29
2022-11-24T00:06:04.413Z,7.38
2022-11-24T00:08:31.925Z,7.07
2022-11-24T00:11:04.547Z,6.84
2022-11-24T00:13:32.088Z,6.42
2022-11-24T00:16:06.465Z,6.23
2022-11-24T00:18:35.413Z,6.71
2022-11-24T00:21:03.072Z,6.65
2022-11-24T00:23:30.642Z,6.36
2022-11-24T00:26:05.398Z,6.56
2022-11-24T00:28:33.723Z,6.51
2022-11-24T00:31:01.557Z,6.35
2022-11-24T00:33:29.208Z,6.29
2022-11-24T00:35:59.348Z,6.20
2022-11-24T00:38:27.365Z,6.39
2022-11-24T00:40:54.901Z,6.16
2022-11-24T00:43:22.601Z,6.57
2022-11-24T00:45:50.190Z,6.73
2022-11-24T00:48:17.780Z,6.72
2022-11-24T00:50:45.329Z,6.85
2022-11-24T00:53:14.193Z,6.93
2022-11-24T00:55:41.713Z,6.89
2022-11-24T00:58:09.215Z,6.94
2022-11-24T01:00:36.753Z,7.21
2022-11-24T01:03:04.354Z,7.41
2022-11-24T01:05:31.956Z,7.53
2022-11-24T01:07:59.466Z,7.12
2022-11-24T01:10:28.422Z,7.20
2022-11-24T01:12:55.968Z,6.58
2022-11-24T01:15:23.505Z,5.92
2022-11-24T01:17:51.087Z,6.06
2022-11-24T01:20:18.851Z,5.92
2022-11-24T01:22:48.939Z,6.02
2022-11-24T01:25:17.038Z,5.98
2022-11-24T01:27:45.971Z,5.89
2022-11-24T01:30:13.555Z,5.94
2022-11-24T01:32:41.101Z,5.87
2022-11-24T01:35:09.943Z,6.16
2022-11-24T01:37:37.479Z,6.10
2022-11-24T01:40:05.855Z,6.16
2022-11-24T01:42:41.047Z,6.06
2022-11-24T01:45:33.295Z,5.99
2022-11-24T01:48:05.489Z,6.07
2022-11-24T01:50:35.090Z,6.16
2022-11-24T01:53:03.046Z,6.25
2022-11-24T01:55:35.542Z,6.16
2022-11-24T01:58:06.279Z,6.16
2022-11-24T02:00:37.220Z,6.17
2022-11-24T02:03:05.081Z,6.25
2022-11-24T02:05:40.144Z,6.47
2022-11-24T02:08:15.752Z,6.21
2022-11-24T02:10:45.304Z,6.37
2022-11-24T02:13:14.000Z,6.40
2022-11-24T02:15:43.164Z,6.30
2022-11-24T02:18:11.024Z,6.33
2022-11-24T02:20:38.762Z,6.35
2022-11-24T02:23:16.415Z,6.60
2022-11-24T02:25:53.784Z,6.44
2022-11-24T02:28:27.813Z,6.62
2022-11-24T02:30:55.562Z,6.55
2022-11-24T02:33:25.222Z,6.68
2022-11-24T02:35:53.053Z,6.87
2022-11-24T02:38:20.596Z,6.67
2022-11-24T02:40:49.898Z,6.79
2022-11-24T02:43:22.304Z,6.74
2022-11-24T02:45:51.231Z,6.92
2022-11-24T02:48:19.627Z,7.00
2022-11-24T02:50:47.199Z,7.37
2022-11-24T02:53:14.800Z,7.53
2022-11-24T02:55:42.336Z,7.49
2022-11-24T02:58:10.043Z,8.05
2022-11-24T03:00:37.584Z,7.81
2022-11-24T03:03:06.642Z,7.99
2022-11-24T03:05:34.260Z,8.22
2022-11-24T03:08:01.788Z,8.20
2022-11-24T03:10:29.464Z,8.23
2022-11-24T03:12:57.344Z,7.68
2022-11-24T03:15:25.123Z,7.67
2022-11-24T03:17:56.385Z,7.74
2022-11-24T03:20:25.963Z,7.73
2022-11-24T03:22:53.912Z,7.61
2022-11-24T03:25:22.031Z,8.07
2022-11-24T03:27:49.564Z,8.53
2022-11-24T03:30:17.732Z,8.42
2022-11-24T03:32:45.268Z,8.59
2022-11-24T03:35:13.063Z,8.38
2022-11-24T03:37:41.972Z,8.47
2022-11-24T03:40:10.528Z,8.70
2022-11-24T03:42:38.059Z,8.69
2022-11-24T03:47:54.018Z,8.39
2022-11-24T03:50:21.554Z,8.27
2022-11-24T03:52:50.450Z,8.07
2022-11-24T03:55:18.005Z,7.98
2022-11-24T03:57:45.617Z,8.11
2022-11-24T04:00:13.978Z,7.82
2022-11-24T04:02:41.572Z,8.18
2022-11-24T04:05:09.632Z,8.41
2022-11-24T04:07:37.314Z,8.07
2022-11-24T04:10:07.817Z,8.29
2022-11-24T04:12:46.644Z,8.39
2022-11-24T04:15:16.451Z,8.36
2022-11-24T04:17:44.376Z,8.53
2022-11-24T04:20:13.318Z,8.57
2022-11-24T04:22:41.201Z,8.01
2022-11-24T04:25:11.275Z,7.66
2022-11-24T04:27:39.488Z,8.31
2022-11-24T04:30:08.477Z,9.16
2022-11-24T04:32:36.287Z,9.51
2022-11-24T04:35:04.162Z,9.50
2022-11-24T04:37:31.711Z,9.00
2022-11-24T04:39:59.212Z,8.75
2022-11-24T04:42:28.110Z,8.65
2022-11-24T04:44:55.680Z,8.79
2022-11-24T04:47:25.195Z,8.67
2022-11-24T04:49:53.178Z,8.98
2022-11-24T04:52:22.883Z,8.93
2022-11-24T04:54:50.741Z,8.67
2022-11-24T04:57:19.689Z,8.41
2022-11-24T04:59:48.622Z,8.30
2022-11-24T05:02:16.195Z,8.34
2022-11-24T05:04:43.811Z,8.75
2022-11-24T05:07:17.971Z,8.66
2022-11-24T05:10:04.189Z,8.47
2022-11-24T05:12:31.957Z,8.53
2022-11-24T05:15:01.736Z,8.60
2022-11-24T05:17:30.804Z,8.58
2022-11-24T05:19:58.518Z,8.80
2022-11-24T05:22:26.895Z,8.62
2022-11-24T05:24:54.507Z,8.10
2022-11-24T05:27:22.228Z,8.35
2022-11-24T05:29:50.042Z,8.15
2022-11-24T05:32:18.969Z,8.37
2022-11-24T05:34:46.510Z,8.58
2022-11-24T05:37:14.150Z,8.46
2022-11-24T05:39:41.683Z,8.52
2022-11-24T05:42:23.498Z,8.70
2022-11-24T05:44:51.046Z,8.48
2022-11-24T05:47:20.605Z,8.98
2022-11-24T05:49:48.444Z,8.69
2022-11-24T05:52:16.141Z,8.35
2022-11-24T05:54:43.816Z,7.67
2022-11-24T05:57:11.386Z,8.14
2022-11-24T05:59:38.919Z,7.67
2022-11-24T06:02:06.589Z,7.64
2022-11-24T06:04:35.720Z,7.18
2022-11-24T06:07:03.602Z,6.89
2022-11-24T06:09:31.126Z,7.16
2022-11-24T06:11:58.615Z,7.24
2022-11-24T06:14:26.116Z,7.69
2022-11-24T06:16:53.762Z,7.78
2022-11-24T06:19:21.309Z,7.54
2022-11-24T06:21:50.196Z,8.35
2022-11-24T06:24:17.735Z,8.52
2022-11-24T06:26:45.297Z,7.98
2022-11-24T06:29:12.823Z,8.08
2022-11-24T06:31:40.389Z,8.16
2022-11-24T06:34:08.383Z,8.14
2022-11-24T06:36:35.904Z,8.26
2022-11-24T06:39:05.664Z,8.04
2022-11-24T06:41:33.564Z,7.95
2022-11-24T06:44:03.956Z,7.87
2022-11-24T06:46:31.512Z,7.89
2022-11-24T06:49:00.577Z,7.70
2022-11-24T06:51:28.341Z,8.04
2022-11-24T06:53:55.903Z,7.84
2022-11-24T06:56:24.768Z,8.00
2022-11-24T06:58:53.860Z,7.76
2022-11-24T07:01:23.821Z,7.78
2022-11-24T07:03:52.194Z,7.86
2022-11-24T07:06:20.961Z,8.01
2022-11-24T07:08:48.883Z,7.98
2022-11-24T07:11:18.995Z,7.87
2022-11-24T07:13:48.998Z,8.20
2022-11-24T07:16:18.991Z,8.63
2022-11-24T07:18:47.966Z,8.04
2022-11-24T07:21:16.320Z,8.22
2022-11-24T07:23:44.231Z,8.15
2022-11-24T07:26:11.961Z,8.40
2022-11-24T07:28:39.463Z,8.76
2022-11-24T07:31:09.520Z,8.64
2022-11-24T07:33:37.375Z,8.96
2022-11-24T07:36:06.426Z,9.10
2022-11-24T07:38:34.562Z,9.27
2022-11-24T07:41:02.388Z,9.22
2022-11-24T07:43:31.518Z,9.19
2022-11-24T07:45:59.088Z,9.42
2022-11-24T07:48:28.260Z,9.47
2022-11-24T07:50:56.490Z,9.00
2022-11-24T07:53:24.135Z,9.50
2022-11-24T07:55:55.526Z,9.30
2022-11-24T07:58:26.493Z,9.35
2022-11-24T08:00:56.672Z,9.22
2022-11-24T08:03:25.202Z,8.94
2022-11-24T08:08:46.161Z,9.30
2022-11-24T08:11:15.090Z,9.44
2022-11-24T08:13:43.084Z,9.50
2022-11-24T08:16:13.116Z,9.64
2022-11-24T08:18:40.809Z,10.67
2022-11-24T08:21:13.232Z,10.86
2022-11-24T08:23:40.956Z,10.21
2022-11-24T08:26:11.837Z,9.40
2022-11-24T08:28:39.348Z,9.15
2022-11-24T08:31:09.055Z,9.20
2022-11-24T08:33:37.524Z,9.05
2022-11-24T08:36:06.065Z,9.28
2022-11-24T08:38:34.964Z,9.31
2022-11-24T08:41:03.329Z,8.76
2022-11-24T08:43:31.356Z,8.98
2022-11-24T08:46:01.122Z,9.60
2022-11-24T08:48:29.132Z,9.86
2022-11-24T08:50:56.911Z,10.23
2022-11-24T08:53:24.629Z,10.24
2022-11-24T08:55:53.517Z,10.47
2022-11-24T08:58:21.029Z,10.56
2022-11-24T09:00:48.547Z,10.86
2022-11-24T09:03:16.104Z,10.82
2022-11-24T09:05:51.811Z,10.26
2022-11-24T09:08:20.621Z,10.57
2022-11-24T09:10:48.224Z,10.89
2022-11-24T09:13:17.078Z,11.09
2022-11-24T09:15:45.280Z,11.13
2022-11-24T09:18:12.799Z,10.70
2022-11-24T09:20:40.643Z,10.34
2022-11-24T09:23:08.155Z,10.07
2022-11-24T09:25:35.667Z,10.42
2022-11-24T09:28:03.187Z,10.09
2022-11-24T09:30:32.245Z,10.15
2022-11-24T09:32:59.831Z,9.62
2022-11-24T09:35:27.324Z,9.06
2022-11-24T09:37:54.863Z,9.19
2022-11-24T09:40:23.676Z,9.18
2022-11-24T09:42:59.474Z,9.38
2022-11-24T09:46:04.556Z,9.25
2022-11-24T09:48:35.892Z,9.49
2022-11-24T09:51:05.369Z,9.42
2022-11-24T09:53:38.677Z,9.48
2022-11-24T09:56:16.973Z,9.41
2022-11-24T09:58:48.285Z,9.18
2022-11-24T10:01:20.114Z,9.15
2022-11-24T10:03:50.778Z,9.49
2022-11-24T10:06:27.687Z,9.77
2022-11-24T10:09:11.459Z,9.79
2022-11-24T10:11:44.689Z,10.09
2022-11-24T10:14:29.998Z,10.43
2022-11-24T10:17:12.336Z,10.38
2022-11-24T10:19:49.279Z,9.86
2022-11-24T10:22:28.743Z,9.69
2022-11-24T10:25:08.264Z,9.86
2022-11-24T10:27:40.264Z,9.73
2022-11-24T10:30:15.771Z,9.83
2022-11-24T10:32:48.354Z,9.70
2022-11-24T10:35:19.471Z,9.13
2022-11-24T10:38:03.347Z,8.61
2022-11-24T10:43:26.783Z,8.30
2022-11-24T10:45:55.642Z,8.49
2022-11-24T10:48:27.265Z,8.48
2022-11-24T10:51:02.915Z,8.45
2022-11-24T10:53:31.833Z,8.16
2022-11-24T10:56:05.697Z,8.57
2022-11-24T10:58:38.031Z,8.87
2022-11-24T11:01:21.621Z,8.85
2022-11-24T11:03:53.244Z,8.40
2022-11-24T11:06:24.305Z,8.08
2022-11-24T11:09:18.971Z,7.92
2022-11-24T11:11:48.317Z,8.12
2022-11-24T11:14:32.259Z,7.97
2022-11-24T11:17:00.370Z,7.41
2022-11-24T11:19:58.454Z,7.83
2022-11-24T11:22:27.839Z,7.36
2022-11-24T11:25:08.057Z,7.48
2022-11-24T11:27:35.608Z,7.56
2022-11-24T11:36:15.543Z,7.69
2022-11-24T11:38:45.074Z,7.76
2022-11-24T11:41:21.696Z,8.00
2022-11-24T11:43:55.288Z,8.37
2022-11-24T11:46:25.684Z,7.88
2022-11-24T11:48:53.272Z,8.22
2022-11-24T11:51:39.290Z,8.50
2022-11-24T11:54:12.840Z,8.16
2022-11-24T11:56:45.293Z,8.31
2022-11-24T11:59:42.839Z,8.28
2022-11-24T12:02:53.961Z,8.43
2022-11-24T12:05:31.478Z,8.10
2022-11-24T12:08:20.962Z,7.95
2022-11-24T12:10:54.804Z,7.48
2022-11-24T12:13:51.947Z,7.66
2022-11-24T12:16:33.386Z,7.95
2022-11-24T12:19:25.331Z,7.89
2022-11-24T12:22:00.372Z,8.44
2022-11-24T12:24:36.593Z,8.55
2022-11-24T12:27:14.807Z,8.72
2022-11-24T12:30:06.692Z,8.54
2022-11-24T12:32:51.768Z,8.73
2022-11-24T12:35:27.884Z,8.43
2022-11-24T12:38:06.411Z,8.57
2022-11-24T12:40:47.237Z,8.49
2022-11-24T12:43:20.505Z,8.40
2022-11-24T12:45:57.770Z,8.33
2022-11-24T12:48:37.687Z,8.25
2022-11-24T12:51:07.462Z,8.19
2022-11-24T12:53:38.352Z,8.87
2022-11-24T12:56:08.428Z,8.70
2022-11-24T12:58:45.597Z,8.88
2022-11-24T13:01:25.970Z,8.51
2022-11-24T13:04:10.976Z,8.45
2022-11-24T13:06:49.753Z,8.66
2022-11-24T13:09:18.165Z,8.58
2022-11-24T13:11:47.120Z,8.85
2022-11-24T13:14:21.985Z,8.89
2022-11-24T13:17:27.852Z,9.16
2022-11-24T13:19:44.241Z,8.24
2022-11-24T13:22:16.601Z,8.45
2022-11-24T13:24:44.830Z,8.64
2022-11-24T13:27:39.927Z,8.53
2022-11-24T13:30:50.102Z,8.27
2022-11-24T13:33:35.897Z,7.97
2022-11-24T13:36:31.870Z,8.08
2022-11-24T13:39:00.643Z,8.06
2022-11-24T13:42:43.457Z,8.25
2022-11-24T13:44:59.512Z,8.03
2022-11-24T13:47:45.120Z,8.15
2022-11-24T13:50:25.251Z,8.56
2022-11-24T13:53:01.715Z,8.36
2022-11-24T13:55:38.705Z,8.13
2022-11-24T13:58:27.704Z,8.10
2022-11-24T14:01:04.102Z,8.39
2022-11-24T14:03:36.020Z,8.46
2022-11-24T14:06:05.618Z,8.82
2022-11-24T14:08:36.353Z,8.95
2022-11-24T14:11:12.378Z,8.82
2022-11-24T14:13:39.931Z,8.53
2022-11-24T14:16:16.405Z,9.10
2022-11-24T14:18:45.788Z,9.55
2022-11-24T14:21:24.564Z,9.06
2022-11-24T14:23:55.056Z,9.14
2022-11-24T14:26:24.283Z,9.81
2022-11-24T14:28:53.300Z,9.76
2022-11-24T14:31:24.398Z,8.95
2022-11-24T14:34:07.975Z,8.49
2022-11-24T14:36:36.868Z,8.15
2022-11-24T14:39:05.196Z,8.29
2022-11-24T14:41:34.411Z,8.86
2022-11-24T14:44:08.058Z,8.99
2022-11-24T14:46:37.010Z,8.87
2022-11-24T14:49:05.509Z,8.52
2022-11-24T14:51:36.410Z,8.55
2022-11-24T14:54:08.176Z,9.11
2022-11-24T14:56:37.429Z,9.11
2022-11-24T14:59:21.228Z,8.55
2022-11-24T15:01:48.843Z,8.54
2022-11-24T15:04:54.550Z,8.61
2022-11-24T15:07:14.824Z,9.22
2022-11-24T15:09:52.107Z,9.35
2022-11-24T15:12:28.528Z,9.45
2022-11-24T15:14:59.011Z,9.92
2022-11-24T15:17:29.071Z,9.85
2022-11-24T15:20:01.540Z,9.80
2022-11-24T15:22:40.532Z,9.80
2022-11-24T15:25:28.616Z,9.99
2022-11-24T15:27:56.204Z,8.99
2022-11-24T15:30:23.856Z,8.89
2022-11-24T15:32:53.183Z,8.42
2022-11-24T15:35:21.682Z,8.21
2022-11-24T15:37:49.214Z,8.24
2022-11-24T15:40:17.171Z,8.39
2022-11-24T15:42:51.071Z,7.90
2022-11-24T15:45:19.272Z,8.03
2022-11-24T15:47:47.011Z,7.63
2022-11-24T15:50:15.814Z,7.65
2022-11-24T15:52:43.904Z,7.34
2022-11-24T15:55:18.441Z,7.27
2022-11-24T15:57:47.984Z,7.23
2022-11-24T16:00:18.266Z,7.15
2022-11-24T16:02:45.884Z,7.37
2022-11-24T16:05:14.561Z,6.88
2022-11-24T16:07:42.184Z,7.12
2022-11-24T16:10:20.192Z,7.44
2022-11-24T16:12:49.048Z,7.91
2022-11-24T16:15:16.819Z,8.47
2022-11-24T16:17:44.433Z,8.44
2022-11-24T16:20:12.349Z,8.41
2022-11-24T16:22:39.959Z,8.48
2022-11-24T16:25:08.347Z,8.28
2022-11-24T16:27:35.928Z,8.22
2022-11-24T16:30:05.524Z,8.01
2022-11-24T16:32:33.076Z,8.03
2022-11-24T16:35:00.731Z,8.00
2022-11-24T16:37:28.283Z,7.75
2022-11-24T16:39:55.781Z,7.94
2022-11-24T16:42:23.316Z,8.12
2022-11-24T16:44:51.919Z,8.23
2022-11-24T16:47:21.083Z,8.21
2022-11-24T16:49:48.671Z,7.81
2022-11-24T16:52:16.447Z,7.96
2022-11-24T16:54:46.128Z,7.96
2022-11-24T16:57:15.113Z,7.94
2022-11-24T16:59:45.835Z,8.06
2022-11-24T17:02:14.027Z,8.01
2022-11-24T17:04:42.998Z,7.82
2022-11-24T17:07:10.591Z,7.80
2022-11-24T17:09:40.722Z,7.81
2022-11-24T17:12:08.544Z,7.85
2022-11-24T17:14:36.949Z,7.82
2022-11-24T17:17:04.772Z,7.73
2022-11-24T17:19:32.635Z,7.61
2022-11-24T17:22:01.536Z,7.36
2022-11-24T17:24:29.094Z,7.40
2022-11-24T17:26:56.614Z,7.17
2022-11-24T17:29:24.394Z,7.00
2022-11-24T17:31:51.974Z,7.12
2022-11-24T17:34:19.893Z,7.29
2022-11-24T17:36:47.407Z,7.45
2022-11-24T17:39:19.140Z,7.92
2022-11-24T17:41:50.834Z,7.58
2022-11-24T17:44:18.364Z,7.69
2022-11-24T17:46:45.892Z,7.62
2022-11-24T17:49:14.344Z,7.62
2022-11-24T17:51:41.872Z,7.54
2022-11-24T17:54:39.177Z,7.95
2022-11-24T17:56:58.480Z,8.20
2022-11-24T17:59:26.006Z,8.37
2022-11-24T18:01:53.609Z,8.41
2022-11-24T18:04:21.262Z,8.62
2022-11-24T18:06:48.786Z,8.46
2022-11-24T18:09:16.348Z,8.90
2022-11-24T18:11:44.187Z,8.88
2022-11-24T18:14:13.080Z,8.89
2022-11-24T18:16:40.634Z,9.03
2022-11-24T18:19:10.903Z,9.14
2022-11-24T18:21:39.961Z,9.03
2022-11-24T18:24:08.211Z,8.82
2022-11-24T18:26:35.750Z,8.23
2022-11-24T18:29:03.447Z,8.56
2022-11-24T18:31:34.204Z,8.61
2022-11-24T18:34:02.455Z,8.79
2022-11-24T18:36:30.926Z,8.90
2022-11-24T18:38:58.672Z,9.13
2022-11-24T18:41:27.050Z,9.14
2022-11-24T18:43:54.583Z,8.42
2022-11-24T18:46:22.277Z,8.63
2022-11-24T18:48:51.928Z,8.23
2022-11-24T18:51:19.583Z,8.73
2022-11-24T18:53:47.795Z,9.26
2022-11-24T18:56:16.749Z,8.92
2022-11-24T18:58:45.116Z,9.09
2022-11-24T19:01:14.569Z,9.31
2022-11-24T19:03:48.785Z,8.89
2022-11-24T19:06:20.008Z,8.98
2022-11-24T19:08:48.732Z,9.19
2022-11-24T19:11:20.350Z,9.25
2022-11-24T19:13:49.027Z,9.29
2022-11-24T19:16:17.787Z,9.11
2022-11-24T19:18:48.949Z,9.01
2022-11-24T19:21:22.777Z,8.93
2022-11-24T19:23:50.955Z,9.04
2022-11-24T19:26:18.797Z,8.78
2022-11-24T19:28:46.483Z,8.62
2022-11-24T19:31:15.796Z,8.63
2022-11-24T19:33:43.510Z,8.42
2022-11-24T19:36:13.842Z,8.31
2022-11-24T19:38:49.785Z,8.54
2022-11-24T19:41:19.255Z,8.73
2022-11-24T19:43:47.292Z,8.75
2022-11-24T19:46:17.400Z,8.96
2022-11-24T19:48:47.156Z,8.91
2022-11-24T19:51:16.688Z,8.91
2022-11-24T19:53:45.898Z,8.88
2022-11-24T19:56:15.346Z,9.04
2022-11-24T19:58:43.611Z,8.90
2022-11-24T20:01:14.074Z,9.00
2022-11-24T20:03:43.581Z,9.11
2022-11-24T20:06:12.691Z,8.66
2022-11-24T20:08:42.426Z,8.59
2022-11-24T20:11:13.127Z,8.63
2022-11-24T20:13:42.579Z,8.94
2022-11-24T20:16:12.018Z,9.11
2022-11-24T20:18:42.257Z,8.99
2022-11-24T20:21:11.650Z,8.88
2022-11-24T20:23:39.926Z,9.04
2022-11-24T20:26:09.228Z,9.05
2022-11-24T20:28:38.690Z,9.14
2022-11-24T20:31:07.913Z,8.96
2022-11-24T20:33:36.808Z,8.99
2022-11-24T20:36:05.934Z,9.17
2022-11-24T20:38:34.416Z,9.22
2022-11-24T20:41:08.825Z,8.99
2022-11-24T20:43:39.070Z,8.73
2022-11-24T20:46:09.594Z,8.64
2022-11-24T20:48:37.677Z,8.92
2022-11-24T20:51:06.330Z,9.11
2022-11-24T20:53:34.176Z,9.06
2022-11-24T20:56:06.232Z,9.23
2022-11-24T20:58:35.043Z,9.29
2022-11-24T21:01:09.765Z,9.30
2022-11-24T21:03:42.742Z,9.31
2022-11-24T21:06:11.196Z,9.03
2022-11-24T21:08:40.130Z,8.95
2022-11-24T21:11:10.266Z,8.96
2022-11-24T21:13:39.042Z,8.86
2022-11-24T21:16:15.470Z,8.88
2022-11-24T21:18:44.433Z,8.97
2022-11-24T21:21:12.991Z,8.80
2022-11-24T21:23:40.837Z,8.99
2022-11-24T21:26:16.335Z,8.84
2022-11-24T21:28:45.478Z,8.85
2022-11-24T21:31:17.255Z,8.88
2022-11-24T21:33:47.356Z,8.86
2022-11-24T21:36:17.735Z,8.75
2022-11-24T21:38:50.223Z,8.66
2022-11-24T21:41:18.435Z,8.51
2022-11-24T21:43:46.440Z,7.86
2022-11-24T21:46:15.501Z,7.86
2022-11-24T21:48:43.662Z,7.75
2022-11-24T21:51:13.984Z,7.71
2022-11-24T21:53:41.748Z,7.65
2022-11-24T21:56:12.869Z,7.73
2022-11-24T21:58:45.509Z,7.61
2022-11-24T22:01:15.374Z,7.36
2022-11-24T22:03:43.166Z,7.34
2022-11-24T22:06:10.956Z,7.39
2022-11-24T22:08:38.656Z,7.20
2022-11-24T22:11:08.467Z,7.21
2022-11-24T22:13:36.268Z,7.07
2022-11-24T22:16:05.876Z,6.95
2022-11-24T22:18:36.872Z,6.94
2022-11-24T22:21:05.677Z,6.89
2022-11-24T22:23:35.970Z,6.92
2022-11-24T22:26:04.761Z,6.91
2022-11-24T22:28:33.491Z,6.87
2022-11-24T22:31:04.678Z,6.78
2022-11-24T22:33:32.214Z,6.76
2022-11-24T22:36:02.264Z,6.64
2022-11-24T22:38:31.104Z,6.46
2022-11-24T22:41:02.543Z,6.30
2022-11-24T22:43:32.541Z,6.18
2022-11-24T22:46:04.328Z,6.17
2022-11-24T22:48:32.112Z,6.07
2022-11-24T22:51:05.486Z,5.94
2022-11-24T22:53:33.464Z,5.94
2022-11-24T22:56:04.809Z,5.91
2022-11-24T22:58:33.243Z,5.82
2022-11-24T23:01:05.064Z,5.77
2022-11-24T23:03:35.645Z,5.72
2022-11-24T23:06:06.124Z,5.70
2022-11-24T23:08:34.872Z,5.64
2022-11-24T23:11:03.592Z,5.57
2022-11-24T23:13:31.584Z,5.50
2022-11-24T23:16:02.993Z,5.52
2022-11-24T23:18:30.892Z,5.48
2022-11-24T23:21:04.529Z,5.43
2022-11-24T23:23:33.692Z,5.31
2022-11-24T23:26:01.741Z,5.46
2022-11-24T23:28:29.375Z,5.24
2022-11-24T23:31:01.126Z,5.33
2022-11-24T23:33:28.692Z,5.28
2022-11-24T23:35:56.220Z,5.07
2022-11-24T23:38:28.503Z,4.90
2022-11-24T23:40:57.617Z,5.02
2022-11-24T23:43:25.149Z,5.06
2022-11-24T23:45:53.261Z,5.14
2022-11-24T23:48:20.835Z,5.26
2022-11-24T23:50:48.463Z,5.16
2022-11-24T23:53:15.992Z,5.19
2022-11-24T23:55:43.496Z,5.14
2022-11-24T23:58:12.697Z,5.15
